Time;durP1;ratioP1;P1;durP2;ratioP2;P2;SDS_P1;SDS_P2;PMS_P1;PMS_P2;Temp;Humidity;BMP_temperature;BMP_pressure;BME280_temperature;BME280_humidity;BME280_pressure;Samples;Min_cycle;Max_cycle;Signal;HPM_P1;HPM_P2
2022/10/27 04:01:57;;;;;;;38.03;25.83;;;;;;;13.78;98.66;101599.03;5606231;31;81467;-56
2022/10/27 04:07:37;;;;;;;37.33;26.15;;;;;;;13.84;98.58;101612.22;5602788;31;78858;-56
2022/10/27 04:10:42;;;;;;;35.20;26.35;;;;;;;13.84;98.58;101612.22;5585054;31;34160;-56
2022/10/27 04:13:45;;;;;;;35.13;25.55;;;;;;;13.37;100.00;101615.19;5601606;31;34317;-57
2022/10/27 04:16:50;;;;;;;34.90;23.83;;;;;;;13.43;100.00;101614.13;5602191;31;33543;-55
2022/10/27 04:19:52;;;;;;;33.35;23.87;;;;;;;13.53;99.68;101616.00;5583976;32;34373;-56
2022/10/27 04:22:55;;;;;;;33.85;24.60;;;;;;;13.53;100.00;101618.72;5583424;32;33616;-56
2022/10/27 04:25:57;;;;;;;35.35;26.95;;;;;;;13.59;99.12;101623.84;5583197;31;33416;-56
2022/10/27 04:29:00;;;;;;;35.97;24.50;;;;;;;13.72;98.22;101633.25;5600378;31;33598;-56
2022/10/27 04:32:02;;;;;;;33.13;24.75;;;;;;;13.66;99.03;101628.16;5598895;31;34241;-56
2022/10/27 04:35:06;;;;;;;32.90;23.65;;;;;;;13.76;97.92;101634.31;5603196;31;33982;-56
2022/10/27 04:38:08;;;;;;;33.05;24.02;;;;;;;13.75;98.01;101631.91;5603294;31;34293;-56
2022/10/27 04:41:10;;;;;;;36.30;24.33;;;;;;;13.74;97.61;101638.38;5592700;31;33796;-56
2022/10/27 04:44:12;;;;;;;33.47;25.75;;;;;;;13.63;98.72;101638.38;5585223;31;33261;-56
2022/10/27 04:47:14;;;;;;;32.33;25.02;;;;;;;13.66;98.55;101639.72;5611498;31;33510;-56
2022/10/27 04:50:17;;;;;;;34.67;25.52;;;;;;;13.65;98.50;101645.41;5594624;31;33585;-56
2022/10/27 04:53:19;;;;;;;31.98;23.27;;;;;;;13.67;98.69;101646.72;5608704;31;34301;-56
2022/10/27 04:56:21;;;;;;;35.65;24.98;;;;;;;13.71;98.18;101641.59;5588431;31;34267;-56
2022/10/27 04:59:24;;;;;;;33.45;25.02;;;;;;;13.71;98.10;101647.00;5585903;31;33336;-57
2022/10/27 05:02:26;;;;;;;32.17;24.87;;;;;;;13.75;97.48;101642.69;5591560;31;34265;-56
2022/10/27 05:05:30;;;;;;;37.50;24.55;;;;;;;13.73;97.71;101642.94;5594818;31;33869;-56
2022/10/27 05:08:33;;;;;;;32.90;24.95;;;;;;;13.72;97.58;101662.09;5600525;31;34293;-57
2022/10/27 05:11:35;;;;;;;39.38;26.00;;;;;;;13.71;98.33;101663.16;5594626;31;34281;-56
2022/10/27 05:14:37;;;;;;;38.88;26.83;;;;;;;13.65;99.00;101666.94;5591065;31;33426;-56
2022/10/27 05:17:40;;;;;;;34.63;25.42;;;;;;;13.67;98.88;101656.69;5583582;31;34241;-57
2022/10/27 05:20:42;;;;;;;33.70;24.77;;;;;;;13.72;98.53;101665.59;5587906;31;33196;-56
2022/10/27 05:23:44;;;;;;;35.17;24.98;;;;;;;13.73;97.49;101658.31;5586604;31;34399;-56
2022/10/27 05:26:48;;;;;;;30.17;23.12;;;;;;;13.78;97.76;101658.34;5574227;31;33832;-56
2022/10/27 05:29:51;;;;;;;29.98;21.70;;;;;;;13.79;96.26;101668.03;5580529;31;33595;-57
2022/10/27 05:32:53;;;;;;;27.05;21.23;;;;;;;13.72;96.45;101671.00;5583366;31;33651;-56
2022/10/27 05:35:55;;;;;;;31.05;21.70;;;;;;;13.74;95.37;101673.41;5570516;31;34347;-56
2022/10/27 05:38:57;;;;;;;34.15;22.20;;;;;;;13.77;94.59;101675.56;5577619;31;32295;-56
2022/10/27 05:41:59;;;;;;;34.63;23.70;;;;;;;13.72;96.08;101680.97;5578623;31;33534;-56
2022/10/27 05:45:02;;;;;;;33.15;22.87;;;;;;;13.76;95.16;101676.66;5584568;31;33648;-56
2022/10/27 05:48:06;;;;;;;30.60;24.73;;;;;;;13.82;93.57;101681.75;5580854;31;33660;-56
2022/10/27 05:51:08;;;;;;;35.20;23.50;;;;;;;13.70;94.37;101693.88;5588035;31;33351;-56
2022/10/27 05:54:11;;;;;;;35.10;23.48;;;;;;;13.65;95.64;101702.78;5582166;31;33676;-56
2022/10/27 05:57:13;;;;;;;35.38;24.77;;;;;;;13.65;95.42;101700.09;5580487;31;33697;-56
2022/10/27 06:00:15;;;;;;;33.33;25.00;;;;;;;13.66;95.85;101703.59;5576163;31;33794;-56
2022/10/27 06:03:23;;;;;;;32.80;24.20;;;;;;;13.65;95.90;101701.97;5574144;31;34392;-57
2022/10/27 06:06:25;;;;;;;33.70;24.37;;;;;;;13.74;95.89;101695.78;5584975;31;33425;-57
2022/10/27 06:09:27;;;;;;;39.17;24.27;;;;;;;13.87;94.81;101699.81;5576558;31;33826;-58
2022/10/27 06:12:29;;;;;;;36.50;23.45;;;;;;;13.90;93.88;101703.88;5587094;31;33095;-57
2022/10/27 06:15:33;;;;;;;33.10;24.25;;;;;;;13.92;93.55;101721.37;5586260;31;33129;-56
2022/10/27 06:18:35;;;;;;;34.63;23.23;;;;;;;13.83;93.87;101715.72;5586799;31;34200;-56
2022/10/27 06:21:37;;;;;;;35.53;23.12;;;;;;;13.78;94.39;101723.00;5582366;31;33725;-56
2022/10/27 06:24:39;;;;;;;35.00;23.25;;;;;;;13.80;94.86;101729.72;5586786;31;34345;-56
2022/10/27 06:27:41;;;;;;;39.22;23.62;;;;;;;13.79;94.67;101730.00;5577847;31;33345;-56
2022/10/27 06:30:44;;;;;;;29.40;21.45;;;;;;;13.89;94.80;101730.00;5587112;31;33591;-56
2022/10/27 06:33:46;;;;;;;29.55;21.83;;;;;;;14.04;93.14;101727.34;5570112;31;34411;-56
2022/10/27 06:36:48;;;;;;;30.60;22.33;;;;;;;13.99;93.55;101730.00;5577066;31;33729;-56
2022/10/27 06:39:54;;;;;;;38.22;22.92;;;;;;;14.07;93.32;101737.56;5582364;31;33592;-56
2022/10/27 06:42:57;;;;;;;44.30;24.50;;;;;;;13.92;93.98;101736.75;5578941;31;33637;-57
2022/10/27 06:46:09;;;;;;;33.22;22.35;;;;;;;13.90;94.46;101734.31;5579592;31;33633;-56
2022/10/27 06:49:11;;;;;;;35.58;24.85;;;;;;;13.81;94.46;101739.47;5579111;31;33092;-57
2022/10/27 06:52:18;;;;;;;33.13;23.55;;;;;;;13.82;94.50;101740.25;5582925;31;33578;-56
2022/10/27 06:55:20;;;;;;;35.30;23.58;;;;;;;13.88;95.30;101755.37;5579391;31;33345;-56
2022/10/27 06:58:23;;;;;;;38.38;25.88;;;;;;;13.94;94.54;101751.59;5576256;31;33808;-57
2022/10/27 07:01:25;;;;;;;37.50;24.50;;;;;;;13.93;94.92;101752.66;5575219;31;33793;-56
2022/10/27 07:04:28;;;;;;;40.38;25.88;;;;;;;14.00;94.36;101755.09;5577228;31;33644;-57
2022/10/27 07:07:30;;;;;;;33.65;24.27;;;;;;;14.04;94.85;101759.69;5575079;31;33855;-57
2022/10/27 07:10:33;;;;;;;33.28;24.58;;;;;;;14.10;95.14;101763.16;5590290;31;33615;-56
2022/10/27 07:13:35;;;;;;;35.78;24.80;;;;;;;14.17;94.35;101761.03;5576773;31;33625;-57
2022/10/27 07:16:37;;;;;;;33.08;25.27;;;;;;;14.23;94.34;101764.53;5572354;31;33839;-56
2022/10/27 07:19:39;;;;;;;38.65;24.63;;;;;;;14.30;92.84;101775.84;5569181;32;33408;-56
2022/10/27 07:22:42;;;;;;;36.05;25.20;;;;;;;14.30;93.22;101770.44;5584549;31;33392;-56
2022/10/27 07:25:47;;;;;;;35.00;26.62;;;;;;;14.39;92.83;101776.91;5590315;31;33341;-56
2022/10/27 07:28:49;;;;;;;36.22;26.48;;;;;;;14.33;93.73;101783.41;5588329;31;33763;-56
2022/10/27 07:31:52;;;;;;;34.05;26.12;;;;;;;14.40;93.89;101791.22;5577265;31;33601;-57
2022/10/27 07:34:54;;;;;;;35.15;25.98;;;;;;;14.40;93.25;101800.13;5587618;31;33640;-56
2022/10/27 07:37:56;;;;;;;37.00;26.77;;;;;;;14.45;93.81;101793.91;5582225;31;33662;-57
2022/10/27 07:40:58;;;;;;;35.00;25.98;;;;;;;14.50;93.21;101791.19;5587548;31;34358;-56
2022/10/27 07:44:01;;;;;;;36.10;26.67;;;;;;;14.50;93.31;101808.25;5585808;31;33462;-56
2022/10/27 07:47:03;;;;;;;34.17;26.08;;;;;;;14.65;92.38;101806.59;5584456;31;34037;-56
2022/10/27 07:50:07;;;;;;;34.50;25.10;;;;;;;14.50;93.17;101808.25;5588291;31;33612;-56
2022/10/27 07:53:10;;;;;;;34.70;24.80;;;;;;;14.47;93.74;101822.25;5584731;31;33667;-56
2022/10/27 07:56:12;;;;;;;31.98;24.08;;;;;;;14.49;93.06;101821.97;5582053;31;33371;-56
2022/10/27 07:59:14;;;;;;;32.00;23.95;;;;;;;14.52;92.99;101822.25;5573535;31;34297;-57
2022/10/27 08:02:16;;;;;;;36.72;24.77;;;;;;;14.51;94.13;101823.34;5578257;31;33647;-56
2022/10/27 08:05:20;;;;;;;31.12;24.65;;;;;;;14.60;92.26;101828.19;5578579;31;33750;-56
2022/10/27 08:08:22;;;;;;;35.90;26.83;;;;;;;14.56;93.06;101833.31;5579728;31;34224;-56
2022/10/27 08:11:24;;;;;;;34.45;25.95;;;;;;;14.63;91.49;101836.56;5584103;31;33795;-56
2022/10/27 08:14:27;;;;;;;38.17;26.25;;;;;;;14.69;91.58;101848.97;5578936;31;33935;-56
2022/10/27 08:17:31;;;;;;;33.70;24.73;;;;;;;14.63;92.21;101846.53;5585480;31;34032;-56
2022/10/27 08:20:38;;;;;;;35.65;25.83;;;;;;;14.61;92.78;101838.72;5569243;31;33504;-56
2022/10/27 08:23:41;;;;;;;33.97;24.48;;;;;;;14.64;92.33;101848.97;5575156;31;34342;-57
2022/10/27 08:26:43;;;;;;;31.15;24.80;;;;;;;14.73;90.88;101857.31;5574247;31;33775;-56
2022/10/27 08:29:47;;;;;;;31.80;22.95;;;;;;;14.72;90.82;101858.41;5579948;31;33604;-56
2022/10/27 08:32:54;;;;;;;31.12;24.50;;;;;;;14.70;91.25;101852.47;5570901;31;33013;-56
2022/10/27 08:36:00;;;;;;;35.03;23.92;;;;;;;14.67;92.16;101855.72;5580509;31;34254;-56
2022/10/27 08:39:02;;;;;;;29.90;23.00;;;;;;;14.65;91.53;101849.78;5568937;31;33407;-56
2022/10/27 08:42:22;;;;;;;31.55;23.48;;;;;;;14.68;91.72;101851.94;5569039;31;34294;-56
2022/10/27 08:45:29;;;;;;;30.65;23.73;;;;;;;14.61;91.92;101860.31;5569989;31;34388;-56
2022/10/27 08:48:34;;;;;;;36.28;24.35;;;;;;;14.60;91.08;101855.97;5568963;31;33521;-57
2022/10/27 08:51:39;;;;;;;31.98;23.65;;;;;;;14.69;90.98;101861.66;5572968;31;34074;-56
2022/10/27 08:54:48;;;;;;;37.30;23.12;;;;;;;14.79;90.00;101854.34;5578319;31;33575;-56
2022/10/27 08:58:12;;;;;;;31.73;23.70;;;;;;;14.71;91.12;101854.09;5570454;31;32943;-56
2022/10/27 09:01:30;;;;;;;30.80;24.08;;;;;;;14.69;91.47;101853.56;5581893;31;33487;-56
2022/10/27 09:05:11;;;;;;;30.35;23.27;;;;;;;14.84;90.07;101858.16;5579702;31;34335;-56
2022/10/27 09:08:36;;;;;;;32.53;23.42;;;;;;;14.85;89.51;101859.75;5578220;31;33907;-57
2022/10/27 09:11:55;;;;;;;34.92;24.95;;;;;;;14.74;91.58;101857.06;5582282;31;33721;-57
2022/10/27 09:15:26;;;;;;;34.30;24.63;;;;;;;14.61;91.51;101851.41;5589676;31;33698;-56
2022/10/27 09:19:01;;;;;;;38.10;25.23;;;;;;;14.69;91.51;101850.84;5585506;31;34400;-57
2022/10/27 09:22:07;;;;;;;34.80;24.35;;;;;;;14.68;91.23;101858.16;5576938;31;34232;-57
2022/10/27 09:25:16;;;;;;;40.72;27.02;;;;;;;14.70;91.54;101861.41;5581377;31;33401;-56
2022/10/27 09:28:24;;;;;;;31.27;24.20;;;;;;;14.79;90.73;101867.84;5586894;31;33813;-56
2022/10/27 09:31:35;;;;;;;31.48;24.02;;;;;;;14.93;90.93;101861.88;5573003;31;33461;-56
2022/10/27 09:34:51;;;;;;;33.35;24.83;;;;;;;14.91;89.78;101856.78;5575575;31;33582;-56
2022/10/27 09:37:55;;;;;;;47.92;26.48;;;;;;;14.91;90.10;101864.06;5586553;31;33726;-56
2022/10/27 09:40:57;;;;;;;39.15;25.05;;;;;;;14.90;90.32;101855.16;5580271;31;33735;-56
2022/10/27 09:44:02;;;;;;;33.75;25.50;;;;;;;14.92;90.62;101855.69;5586451;31;33671;-56
2022/10/27 09:47:04;;;;;;;35.78;24.90;;;;;;;15.01;89.91;101854.03;5576041;31;34368;-56
2022/10/27 09:50:44;;;;;;;34.63;25.70;;;;;;;15.10;89.85;101865.09;5583217;31;34373;-56
2022/10/27 09:53:51;;;;;;;32.75;24.85;;;;;;;15.19;88.82;101865.34;5560987;31;33740;-56
2022/10/27 09:56:55;;;;;;;39.67;26.95;;;;;;;15.08;89.94;101869.97;5566536;31;33593;-56
2022/10/27 10:00:00;;;;;;;40.30;26.75;;;;;;;14.95;90.98;101860.53;5568656;31;33644;-56
2022/10/27 10:03:19;;;;;;;42.53;26.67;;;;;;;14.90;91.01;101857.88;5573662;31;35195;-56
2022/10/27 10:06:32;;;;;;;37.25;27.00;;;;;;;15.04;90.13;101869.69;5573469;31;33709;-56
2022/10/27 10:09:41;;;;;;;36.78;26.73;;;;;;;15.08;90.77;101864.56;5570480;31;33704;-56
2022/10/27 10:12:44;;;;;;;38.33;27.73;;;;;;;15.07;90.50;101868.34;5569183;31;33767;-57
2022/10/27 10:15:47;;;;;;;36.85;28.48;;;;;;;15.06;90.44;101866.72;5592679;31;34770;-56
2022/10/27 10:19:01;;;;;;;38.45;27.42;;;;;;;15.10;90.22;101870.50;5572355;31;33697;-56
2022/10/27 10:22:03;;;;;;;45.00;29.55;;;;;;;15.14;89.51;101868.06;5577808;31;34453;-57
2022/10/27 10:25:21;;;;;;;42.40;28.40;;;;;;;15.10;89.84;101872.38;5592316;31;33068;-57
2022/10/27 10:28:34;;;;;;;37.20;28.52;;;;;;;15.08;90.30;101861.06;5580778;31;33137;-56
2022/10/27 10:31:37;;;;;;;45.17;28.05;;;;;;;15.16;89.92;101866.69;5590180;31;33564;-56
2022/10/27 10:34:43;;;;;;;37.28;28.45;;;;;;;15.31;88.84;101867.75;5578018;31;33840;-58
2022/10/27 10:37:46;;;;;;;37.65;27.33;;;;;;;15.31;88.13;101862.34;5577236;31;34350;-57
2022/10/27 10:41:12;;;;;;;43.92;29.08;;;;;;;15.23;89.20;101864.53;5568550;31;33955;-56
2022/10/27 10:44:16;;;;;;;38.80;28.15;;;;;;;15.40;88.28;101861.50;5582749;31;33673;-57
2022/10/27 10:47:26;;;;;;;40.45;28.52;;;;;;;15.48;87.25;101863.63;5578690;31;33906;-56
2022/10/27 10:50:30;;;;;;;38.67;29.05;;;;;;;15.44;86.94;101856.34;5566573;31;33805;-56
2022/10/27 10:53:37;;;;;;;43.35;29.55;;;;;;;15.37;88.17;101856.63;5576408;31;32915;-56
2022/10/27 10:56:40;;;;;;;46.05;29.67;;;;;;;15.48;87.71;101855.50;5582395;31;33627;-56
2022/10/27 10:59:43;;;;;;;41.53;28.98;;;;;;;15.51;86.90;101863.06;5570538;31;34460;-57
2022/10/27 11:03:14;;;;;;;40.95;29.77;;;;;;;15.62;86.68;101852.19;5583077;31;33624;-56
2022/10/27 11:06:20;;;;;;;44.97;30.20;;;;;;;15.48;87.56;101857.41;5578487;31;33805;-56
2022/10/27 11:09:30;;;;;;;38.97;29.23;;;;;;;15.59;86.91;101847.34;5582328;31;33228;-56
2022/10/27 11:12:46;;;;;;;38.95;29.37;;;;;;;15.55;87.56;101852.50;5578686;31;33620;-56
2022/10/27 11:15:56;;;;;;;38.42;28.67;;;;;;;15.58;86.98;101853.84;5579970;31;34385;-56
2022/10/27 11:19:01;;;;;;;41.13;28.80;;;;;;;15.66;87.41;101850.56;5581716;31;34692;-56
2022/10/27 11:22:10;;;;;;;42.95;29.67;;;;;;;15.73;85.82;101856.50;5571859;31;32423;-57
2022/10/27 11:25:22;;;;;;;44.70;30.15;;;;;;;15.57;85.92;101850.34;5584128;31;33739;-57
2022/10/27 11:28:58;;;;;;;39.30;29.00;;;;;;;15.42;86.79;101848.50;5580192;31;34446;-57
2022/10/27 11:32:15;;;;;;;38.40;28.77;;;;;;;15.43;87.54;101852.00;5579926;31;33504;-57
2022/10/27 11:35:41;;;;;;;38.63;30.40;;;;;;;15.57;86.71;101842.22;5583525;31;33754;-56
2022/10/27 11:39:01;;;;;;;39.38;28.23;;;;;;;15.51;86.79;101843.34;5587511;31;33666;-57
2022/10/27 11:42:16;;;;;;;38.65;29.52;;;;;;;15.61;86.73;101839.78;5579031;31;33310;-57
2022/10/27 11:45:26;;;;;;;43.92;29.58;;;;;;;15.63;86.89;101843.00;5577057;31;34314;-57
2022/10/27 11:48:39;;;;;;;44.13;28.70;;;;;;;15.71;85.39;101839.75;5567639;31;33566;-57
2022/10/27 11:51:51;;;;;;;41.22;28.23;;;;;;;15.75;86.09;101840.81;5577114;31;31960;-56
2022/10/27 11:54:54;;;;;;;41.72;29.40;;;;;;;15.78;85.89;101836.75;5577565;31;33722;-57
2022/10/27 11:58:10;;;;;;;36.38;28.20;;;;;;;15.79;85.49;101836.44;5571424;31;34294;-57
2022/10/27 12:01:32;;;;;;;42.40;27.98;;;;;;;15.80;85.73;101831.88;5568442;32;33473;-56
2022/10/27 12:04:47;;;;;;;40.38;30.00;;;;;;;15.73;86.52;101833.00;5568311;32;34298;-57
2022/10/27 12:08:00;;;;;;;36.42;27.75;;;;;;;15.91;85.92;101825.31;5562990;32;33753;-56
2022/10/27 12:11:17;;;;;;;39.45;27.15;;;;;;;15.86;86.53;101822.63;5567519;32;34012;-57
2022/10/27 12:14:31;;;;;;;39.13;29.08;;;;;;;15.98;85.31;101820.37;5556180;32;33674;-57
2022/10/27 12:17:52;;;;;;;42.25;29.37;;;;;;;15.91;85.05;101820.69;5556911;32;33729;-57
2022/10/27 12:20:57;;;;;;;38.60;29.90;;;;;;;15.96;84.90;101820.69;5559572;32;34305;-57
2022/10/27 12:24:42;;;;;;;42.22;29.20;;;;;;;16.00;84.89;101820.91;5549109;32;33595;-56
2022/10/27 12:27:48;;;;;;;44.67;28.30;;;;;;;15.95;84.88;101808.22;5553287;32;34331;-56
2022/10/27 12:30:52;;;;;;;39.42;27.30;;;;;;;15.98;85.60;101807.66;5554811;32;33604;-57
2022/10/27 12:34:02;;;;;;;41.08;28.75;;;;;;;15.99;85.71;101805.75;5553291;32;33337;-56
2022/10/27 12:37:13;;;;;;;38.20;29.65;;;;;;;16.08;83.41;101798.66;5550952;32;33372;-57
2022/10/27 12:40:28;;;;;;;40.67;29.23;;;;;;;16.01;84.54;101813.59;5566041;32;33754;-57
2022/10/27 12:43:39;;;;;;;36.40;28.00;;;;;;;15.90;84.69;101800.16;5570612;32;33758;-57
2022/10/27 12:46:54;;;;;;;40.60;28.83;;;;;;;15.88;84.71;101801.53;5568833;32;33767;-57
2022/10/27 12:50:17;;;;;;;40.97;29.27;;;;;;;15.84;85.02;101806.69;5570604;32;33698;-57
2022/10/27 12:53:34;;;;;;;38.58;28.00;;;;;;;15.89;84.54;101800.41;5570734;32;33881;-57
2022/10/27 12:56:43;;;;;;;42.70;29.58;;;;;;;15.87;85.36;101803.41;5570563;32;34359;-56
2022/10/27 12:59:56;;;;;;;36.58;28.27;;;;;;;15.82;85.55;101808.06;5556272;32;33675;-56
2022/10/27 13:03:20;;;;;;;42.83;29.02;;;;;;;15.79;85.73;101795.09;5570395;32;33633;-56
2022/10/27 13:06:41;;;;;;;40.17;29.98;;;;;;;15.88;85.26;101802.31;5582058;31;33760;-56
2022/10/27 13:10:05;;;;;;;41.05;29.58;;;;;;;15.92;85.22;101808.78;5588469;31;33853;-57
2022/10/27 13:13:29;;;;;;;45.08;29.60;;;;;;;15.86;85.92;101804.53;5590040;31;33845;-57
2022/10/27 13:16:50;;;;;;;50.08;29.12;;;;;;;15.94;84.98;101805.81;5589378;31;33308;-57
2022/10/27 13:20:12;;;;;;;42.90;28.50;;;;;;;15.94;85.06;101797.69;5590036;31;33780;-56
2022/10/27 13:23:29;;;;;;;39.70;29.45;;;;;;;16.01;84.90;101805.50;5589827;31;34395;-57
2022/10/27 13:26:53;;;;;;;41.47;30.27;;;;;;;16.00;86.04;101795.78;5589413;31;33767;-57
2022/10/27 13:30:12;;;;;;;42.30;30.12;;;;;;;16.04;85.55;101794.91;5589357;31;36723;-57
2022/10/27 13:33:35;;;;;;;40.97;30.02;;;;;;;16.14;84.52;101791.31;5589549;31;34378;-56
2022/10/27 13:36:37;;;;;;;42.67;29.15;;;;;;;16.21;83.25;101789.91;5589550;31;34282;-57
2022/10/27 13:39:43;;;;;;;44.85;30.00;;;;;;;16.13;83.72;101792.41;5585530;31;33978;-57
2022/10/27 13:42:48;;;;;;;40.58;28.50;;;;;;;16.10;84.56;101793.00;5588665;31;34139;-57
2022/10/27 13:45:53;;;;;;;39.28;30.73;;;;;;;16.11;84.18;101802.72;5587125;31;33420;-57
2022/10/27 13:48:55;;;;;;;44.75;30.58;;;;;;;16.11;84.00;101800.00;5588623;31;33623;-57
2022/10/27 13:52:16;;;;;;;45.72;32.47;;;;;;;16.08;84.51;101804.06;5589700;31;33609;-56
2022/10/27 13:55:27;;;;;;;41.35;31.12;;;;;;;16.05;84.66;101803.84;5589645;31;33771;-57
2022/10/27 13:58:52;;;;;;;42.72;29.45;;;;;;;16.05;84.13;101793.81;5589571;31;33806;-57
2022/10/27 14:02:01;;;;;;;44.47;30.55;;;;;;;16.05;84.67;101812.75;5588004;31;32122;-57
2022/10/27 14:05:20;;;;;;;43.33;32.92;;;;;;;16.04;85.17;101804.94;5586199;31;34379;-57
2022/10/27 14:08:26;;;;;;;46.40;33.47;;;;;;;16.13;84.24;101798.63;5588985;31;33723;-57
2022/10/27 14:11:30;;;;;;;48.60;34.92;;;;;;;16.12;84.11;101804.31;5589108;31;33721;-56
2022/10/27 14:14:34;;;;;;;47.88;34.00;;;;;;;16.19;83.60;101799.37;5589002;31;33809;-56
2022/10/27 14:17:41;;;;;;;45.97;35.05;;;;;;;16.11;84.32;101805.41;5588564;31;33760;-57
2022/10/27 14:20:43;;;;;;;50.40;34.95;;;;;;;16.07;85.09;101804.38;5589313;31;33783;-57
2022/10/27 14:23:46;;;;;;;46.90;34.17;;;;;;;15.99;85.01;101805.75;5589317;31;34208;-57
2022/10/27 14:26:56;;;;;;;46.88;35.40;;;;;;;16.03;84.86;101809.53;5588984;31;34448;-57
2022/10/27 14:30:32;;;;;;;45.00;32.05;;;;;;;15.90;85.58;101816.37;5588701;31;33639;-56
2022/10/27 14:33:34;;;;;;;48.22;33.88;;;;;;;15.96;85.59;101817.97;5554950;31;34287;-57
2022/10/27 14:36:37;;;;;;;40.85;30.90;;;;;;;15.91;86.09;101819.91;5588639;31;33831;-57
2022/10/27 14:39:40;;;;;;;45.65;32.28;;;;;;;15.98;85.01;101812.25;5589234;31;33779;-57
2022/10/27 14:42:44;;;;;;;42.15;31.37;;;;;;;15.94;85.34;101819.34;5589122;31;33786;-56
2022/10/27 14:45:55;;;;;;;41.67;30.88;;;;;;;15.85;85.68;101808.28;5589363;31;33550;-57
2022/10/27 14:49:08;;;;;;;40.55;30.55;;;;;;;15.81;86.14;101803.75;5588659;31;34325;-57
2022/10/27 14:52:45;;;;;;;41.55;28.73;;;;;;;15.78;86.88;101812.41;5588559;31;33809;-56
2022/10/27 14:56:05;;;;;;;41.37;29.98;;;;;;;15.74;87.81;101814.88;5583751;31;33624;-57
2022/10/27 14:59:20;;;;;;;38.88;28.77;;;;;;;15.80;86.71;101815.66;5589157;31;33731;-57
2022/10/27 15:02:24;;;;;;;40.40;29.10;;;;;;;15.79;86.63;101817.53;5585927;31;34100;-55
2022/10/27 15:05:45;;;;;;;45.55;29.27;;;;;;;15.76;86.68;101814.56;5588883;31;33732;-55
2022/10/27 15:08:49;;;;;;;40.17;29.05;;;;;;;15.79;87.03;101820.22;5588833;31;34469;-55
2022/10/27 15:11:51;;;;;;;41.35;30.40;;;;;;;15.80;86.92;101827.28;5588757;31;33983;-55
2022/10/27 15:14:55;;;;;;;38.33;27.87;;;;;;;15.76;87.36;101825.38;5588915;31;33619;-55
2022/10/27 15:18:01;;;;;;;41.20;30.02;;;;;;;15.77;86.78;101829.72;5588481;31;34439;-55
2022/10/27 15:21:10;;;;;;;38.90;26.87;;;;;;;15.77;86.59;101827.03;5588622;31;33763;-55
2022/10/27 15:24:19;;;;;;;41.30;26.80;;;;;;;15.69;86.93;101820.28;5588857;31;33795;-55
2022/10/27 15:27:21;;;;;;;36.13;26.50;;;;;;;15.63;87.37;101815.97;5588971;31;34378;-55
2022/10/27 15:30:23;;;;;;;35.95;25.52;;;;;;;15.59;87.80;101823.03;5588284;31;34260;-55
2022/10/27 15:33:26;;;;;;;32.95;25.65;;;;;;;15.57;88.57;101822.50;5588821;31;33643;-55
2022/10/27 15:36:28;;;;;;;37.13;25.37;;;;;;;15.58;87.33;101814.09;5588470;31;33735;-55
2022/10/27 15:39:30;;;;;;;33.78;25.00;;;;;;;15.55;87.83;101824.66;5588669;31;33714;-54
2022/10/27 15:42:35;;;;;;;32.30;24.20;;;;;;;15.50;88.45;101826.31;5588329;31;34456;-55
2022/10/27 15:45:44;;;;;;;33.42;24.42;;;;;;;15.52;89.10;101816.03;5588613;31;34480;-56
2022/10/27 15:49:13;;;;;;;30.02;22.87;;;;;;;15.48;89.56;101820.37;5588467;31;34150;-56
2022/10/27 15:52:21;;;;;;;34.05;21.83;;;;;;;15.54;90.90;101831.16;5587156;31;33686;-55
